sensor_id;sensor_type;location;lat;lon;timestamp;P1;durP1;ratioP1;P2;durP2;ratioP2
5507;SDS011;2776;51.046;6.772;2023-12-14T00:00:03;31.63;;;11.73;;
5507;SDS011;2776;51.046;6.772;2023-12-14T00:02:32;28.97;;;12.30;;
5507;SDS011;2776;51.046;6.772;2023-12-14T00:05:00;26.67;;;11.33;;
5507;SDS011;2776;51.046;6.772;2023-12-14T00:07:27;22.80;;;12.13;;
5507;SDS011;2776;51.046;6.772;2023-12-14T00:09:54;25.90;;;11.40;;
5507;SDS011;2776;51.046;6.772;2023-12-14T00:12:21;27.80;;;13.13;;
5507;SDS011;2776;51.046;6.772;2023-12-14T00:14:47;25.40;;;12.67;;
5507;SDS011;2776;51.046;6.772;2023-12-14T00:17:14;29.33;;;12.47;;
5507;SDS011;2776;51.046;6.772;2023-12-14T00:19:41;24.37;;;12.37;;
5507;SDS011;2776;51.046;6.772;2023-12-14T00:22:09;27.60;;;12.43;;
5507;SDS011;2776;51.046;6.772;2023-12-14T00:24:36;22.63;;;12.43;;
5507;SDS011;2776;51.046;6.772;2023-12-14T00:27:03;27.73;;;13.10;;
5507;SDS011;2776;51.046;6.772;2023-12-14T00:29:30;25.97;;;12.10;;
5507;SDS011;2776;51.046;6.772;2023-12-14T00:31:57;26.40;;;12.80;;
5507;SDS011;2776;51.046;6.772;2023-12-14T00:34:23;30.70;;;13.33;;
5507;SDS011;2776;51.046;6.772;2023-12-14T00:36:50;28.17;;;12.40;;
5507;SDS011;2776;51.046;6.772;2023-12-14T00:39:18;31.53;;;13.50;;
5507;SDS011;2776;51.046;6.772;2023-12-14T00:41:45;25.80;;;11.57;;
5507;SDS011;2776;51.046;6.772;2023-12-14T00:44:12;28.33;;;13.10;;
5507;SDS011;2776;51.046;6.772;2023-12-14T00:46:38;26.17;;;11.73;;
5507;SDS011;2776;51.046;6.772;2023-12-14T00:49:04;32.60;;;12.83;;
5507;SDS011;2776;51.046;6.772;2023-12-14T00:51:31;31.43;;;14.77;;
5507;SDS011;2776;51.046;6.772;2023-12-14T00:53:57;27.07;;;13.57;;
5507;SDS011;2776;51.046;6.772;2023-12-14T00:56:25;32.87;;;14.33;;
5507;SDS011;2776;51.046;6.772;2023-12-14T00:58:52;27.07;;;13.60;;
5507;SDS011;2776;51.046;6.772;2023-12-14T01:01:19;31.30;;;15.07;;
5507;SDS011;2776;51.046;6.772;2023-12-14T01:03:46;29.83;;;14.07;;
5507;SDS011;2776;51.046;6.772;2023-12-14T01:06:12;37.03;;;16.40;;
5507;SDS011;2776;51.046;6.772;2023-12-14T01:08:39;34.57;;;14.40;;
5507;SDS011;2776;51.046;6.772;2023-12-14T01:11:06;36.93;;;16.83;;
5507;SDS011;2776;51.046;6.772;2023-12-14T01:13:34;35.13;;;16.97;;
5507;SDS011;2776;51.046;6.772;2023-12-14T01:16:01;37.70;;;16.77;;
5507;SDS011;2776;51.046;6.772;2023-12-14T01:18:27;31.50;;;15.37;;
5507;SDS011;2776;51.046;6.772;2023-12-14T01:20:54;37.23;;;16.60;;
5507;SDS011;2776;51.046;6.772;2023-12-14T01:23:21;39.17;;;15.80;;
5507;SDS011;2776;51.046;6.772;2023-12-14T01:25:48;38.97;;;17.00;;
5507;SDS011;2776;51.046;6.772;2023-12-14T01:28:14;38.07;;;16.23;;
5507;SDS011;2776;51.046;6.772;2023-12-14T01:30:42;35.07;;;16.00;;
5507;SDS011;2776;51.046;6.772;2023-12-14T01:33:09;38.07;;;16.47;;
5507;SDS011;2776;51.046;6.772;2023-12-14T01:35:36;38.77;;;16.83;;
5507;SDS011;2776;51.046;6.772;2023-12-14T01:38:02;35.50;;;15.20;;
5507;SDS011;2776;51.046;6.772;2023-12-14T01:40:29;41.53;;;17.23;;
5507;SDS011;2776;51.046;6.772;2023-12-14T01:43:05;40.43;;;16.07;;
5507;SDS011;2776;51.046;6.772;2023-12-14T01:45:33;45.83;;;18.37;;
5507;SDS011;2776;51.046;6.772;2023-12-14T01:48:01;45.83;;;18.90;;
5507;SDS011;2776;51.046;6.772;2023-12-14T01:50:28;40.27;;;18.17;;
5507;SDS011;2776;51.046;6.772;2023-12-14T01:52:54;35.77;;;17.43;;
5507;SDS011;2776;51.046;6.772;2023-12-14T01:55:21;39.00;;;17.53;;
5507;SDS011;2776;51.046;6.772;2023-12-14T01:57:48;48.40;;;18.80;;
5507;SDS011;2776;51.046;6.772;2023-12-14T02:00:17;34.33;;;17.30;;
5507;SDS011;2776;51.046;6.772;2023-12-14T02:02:51;38.10;;;15.87;;
5507;SDS011;2776;51.046;6.772;2023-12-14T02:05:19;36.00;;;16.00;;
5507;SDS011;2776;51.046;6.772;2023-12-14T02:07:47;37.43;;;15.10;;
5507;SDS011;2776;51.046;6.772;2023-12-14T02:10:15;40.90;;;16.87;;
5507;SDS011;2776;51.046;6.772;2023-12-14T02:12:41;37.00;;;16.23;;
5507;SDS011;2776;51.046;6.772;2023-12-14T02:15:08;38.07;;;15.23;;
5507;SDS011;2776;51.046;6.772;2023-12-14T02:17:35;30.47;;;13.77;;
5507;SDS011;2776;51.046;6.772;2023-12-14T02:20:02;39.20;;;14.83;;
5507;SDS011;2776;51.046;6.772;2023-12-14T02:22:34;29.73;;;13.43;;
5507;SDS011;2776;51.046;6.772;2023-12-14T02:25:14;28.20;;;12.70;;
5507;SDS011;2776;51.046;6.772;2023-12-14T02:27:40;23.47;;;13.13;;
5507;SDS011;2776;51.046;6.772;2023-12-14T02:30:07;27.17;;;13.37;;
5507;SDS011;2776;51.046;6.772;2023-12-14T02:32:34;25.43;;;12.33;;
5507;SDS011;2776;51.046;6.772;2023-12-14T02:35:01;22.20;;;11.07;;
5507;SDS011;2776;51.046;6.772;2023-12-14T02:37:28;24.70;;;12.53;;
5507;SDS011;2776;51.046;6.772;2023-12-14T02:39:56;24.03;;;11.23;;
5507;SDS011;2776;51.046;6.772;2023-12-14T02:42:23;26.03;;;12.67;;
5507;SDS011;2776;51.046;6.772;2023-12-14T02:44:50;25.17;;;13.60;;
5507;SDS011;2776;51.046;6.772;2023-12-14T02:47:17;30.57;;;15.03;;
5507;SDS011;2776;51.046;6.772;2023-12-14T02:49:43;28.90;;;13.63;;
5507;SDS011;2776;51.046;6.772;2023-12-14T02:52:10;28.50;;;13.87;;
5507;SDS011;2776;51.046;6.772;2023-12-14T02:54:38;30.97;;;14.53;;
5507;SDS011;2776;51.046;6.772;2023-12-14T02:57:06;31.90;;;14.87;;
5507;SDS011;2776;51.046;6.772;2023-12-14T02:59:33;30.73;;;14.90;;
5507;SDS011;2776;51.046;6.772;2023-12-14T03:02:00;27.07;;;14.10;;
5507;SDS011;2776;51.046;6.772;2023-12-14T03:04:27;23.60;;;12.40;;
5507;SDS011;2776;51.046;6.772;2023-12-14T03:06:54;23.00;;;11.53;;
5507;SDS011;2776;51.046;6.772;2023-12-14T03:09:21;20.17;;;10.87;;
5507;SDS011;2776;51.046;6.772;2023-12-14T03:11:48;24.53;;;10.47;;
5507;SDS011;2776;51.046;6.772;2023-12-14T03:14:16;20.70;;;9.93;;
5507;SDS011;2776;51.046;6.772;2023-12-14T03:16:43;22.73;;;10.93;;
5507;SDS011;2776;51.046;6.772;2023-12-14T03:19:09;19.30;;;10.40;;
5507;SDS011;2776;51.046;6.772;2023-12-14T03:21:36;20.20;;;9.70;;
5507;SDS011;2776;51.046;6.772;2023-12-14T03:24:03;21.63;;;9.57;;
5507;SDS011;2776;51.046;6.772;2023-12-14T03:26:30;22.20;;;11.47;;
5507;SDS011;2776;51.046;6.772;2023-12-14T03:28:57;25.90;;;13.23;;
5507;SDS011;2776;51.046;6.772;2023-12-14T03:31:25;25.13;;;12.83;;
5507;SDS011;2776;51.046;6.772;2023-12-14T03:33:51;24.97;;;13.00;;
5507;SDS011;2776;51.046;6.772;2023-12-14T03:36:18;34.57;;;13.90;;
5507;SDS011;2776;51.046;6.772;2023-12-14T03:38:47;25.77;;;12.63;;
5507;SDS011;2776;51.046;6.772;2023-12-14T03:41:14;29.53;;;14.23;;
5507;SDS011;2776;51.046;6.772;2023-12-14T03:43:41;29.10;;;14.40;;
5507;SDS011;2776;51.046;6.772;2023-12-14T03:46:07;27.27;;;14.00;;
5507;SDS011;2776;51.046;6.772;2023-12-14T03:48:35;34.93;;;15.10;;
5507;SDS011;2776;51.046;6.772;2023-12-14T03:51:02;39.27;;;15.67;;
5507;SDS011;2776;51.046;6.772;2023-12-14T03:53:29;34.60;;;15.47;;
5507;SDS011;2776;51.046;6.772;2023-12-14T03:55:56;33.80;;;14.57;;
5507;SDS011;2776;51.046;6.772;2023-12-14T03:58:23;30.60;;;13.33;;
5507;SDS011;2776;51.046;6.772;2023-12-14T04:00:50;31.57;;;13.77;;
5507;SDS011;2776;51.046;6.772;2023-12-14T04:03:18;36.50;;;14.13;;
5507;SDS011;2776;51.046;6.772;2023-12-14T04:05:46;47.30;;;18.83;;
5507;SDS011;2776;51.046;6.772;2023-12-14T04:08:13;41.00;;;17.77;;
5507;SDS011;2776;51.046;6.772;2023-12-14T04:10:39;48.87;;;18.83;;
5507;SDS011;2776;51.046;6.772;2023-12-14T04:13:06;51.83;;;19.87;;
5507;SDS011;2776;51.046;6.772;2023-12-14T04:15:33;49.13;;;19.67;;
5507;SDS011;2776;51.046;6.772;2023-12-14T04:18:00;54.23;;;19.67;;
5507;SDS011;2776;51.046;6.772;2023-12-14T04:20:26;46.83;;;17.80;;
5507;SDS011;2776;51.046;6.772;2023-12-14T04:22:54;41.17;;;16.87;;
5507;SDS011;2776;51.046;6.772;2023-12-14T04:25:21;35.90;;;14.97;;
5507;SDS011;2776;51.046;6.772;2023-12-14T04:27:48;36.73;;;14.13;;
5507;SDS011;2776;51.046;6.772;2023-12-14T04:30:15;34.23;;;13.40;;
5507;SDS011;2776;51.046;6.772;2023-12-14T04:32:41;28.10;;;13.23;;
5507;SDS011;2776;51.046;6.772;2023-12-14T04:35:08;36.97;;;14.30;;
5507;SDS011;2776;51.046;6.772;2023-12-14T04:37:35;36.03;;;15.10;;
5507;SDS011;2776;51.046;6.772;2023-12-14T04:40:03;35.83;;;13.93;;
5507;SDS011;2776;51.046;6.772;2023-12-14T04:42:31;32.87;;;13.87;;
5507;SDS011;2776;51.046;6.772;2023-12-14T04:44:58;36.30;;;13.77;;
5507;SDS011;2776;51.046;6.772;2023-12-14T04:47:24;32.77;;;14.07;;
5507;SDS011;2776;51.046;6.772;2023-12-14T04:49:51;33.43;;;14.30;;
5507;SDS011;2776;51.046;6.772;2023-12-14T04:52:18;36.57;;;15.57;;
5507;SDS011;2776;51.046;6.772;2023-12-14T04:54:44;35.17;;;14.87;;
5507;SDS011;2776;51.046;6.772;2023-12-14T04:57:12;28.57;;;15.57;;
5507;SDS011;2776;51.046;6.772;2023-12-14T04:59:40;34.50;;;14.80;;
5507;SDS011;2776;51.046;6.772;2023-12-14T05:02:07;29.63;;;15.13;;
5507;SDS011;2776;51.046;6.772;2023-12-14T05:04:34;27.30;;;11.87;;
5507;SDS011;2776;51.046;6.772;2023-12-14T05:07:01;32.97;;;14.57;;
5507;SDS011;2776;51.046;6.772;2023-12-14T05:09:28;24.77;;;12.50;;
5507;SDS011;2776;51.046;6.772;2023-12-14T05:11:54;26.60;;;12.50;;
5507;SDS011;2776;51.046;6.772;2023-12-14T05:14:23;28.23;;;11.47;;
5507;SDS011;2776;51.046;6.772;2023-12-14T05:16:49;23.57;;;10.40;;
5507;SDS011;2776;51.046;6.772;2023-12-14T05:19:16;20.83;;;10.50;;
5507;SDS011;2776;51.046;6.772;2023-12-14T05:21:43;21.93;;;10.77;;
5507;SDS011;2776;51.046;6.772;2023-12-14T05:24:10;24.43;;;10.77;;
5507;SDS011;2776;51.046;6.772;2023-12-14T05:26:37;24.93;;;10.83;;
5507;SDS011;2776;51.046;6.772;2023-12-14T05:29:03;21.73;;;10.77;;
5507;SDS011;2776;51.046;6.772;2023-12-14T05:31:31;26.67;;;11.90;;
5507;SDS011;2776;51.046;6.772;2023-12-14T05:33:58;31.10;;;12.53;;
5507;SDS011;2776;51.046;6.772;2023-12-14T05:36:25;29.03;;;12.90;;
5507;SDS011;2776;51.046;6.772;2023-12-14T05:38:52;27.70;;;13.03;;
5507;SDS011;2776;51.046;6.772;2023-12-14T05:41:18;26.83;;;10.93;;
5507;SDS011;2776;51.046;6.772;2023-12-14T05:43:45;27.40;;;13.47;;
5507;SDS011;2776;51.046;6.772;2023-12-14T05:46:19;32.47;;;13.33;;
5507;SDS011;2776;51.046;6.772;2023-12-14T05:48:48;34.00;;;14.27;;
5507;SDS011;2776;51.046;6.772;2023-12-14T05:51:25;25.17;;;12.80;;
5507;SDS011;2776;51.046;6.772;2023-12-14T05:53:52;26.43;;;12.37;;
5507;SDS011;2776;51.046;6.772;2023-12-14T05:56:19;30.67;;;13.60;;
5507;SDS011;2776;51.046;6.772;2023-12-14T05:58:46;27.13;;;12.00;;
5507;SDS011;2776;51.046;6.772;2023-12-14T06:01:13;27.77;;;12.43;;
5507;SDS011;2776;51.046;6.772;2023-12-14T06:03:42;30.13;;;13.20;;
5507;SDS011;2776;51.046;6.772;2023-12-14T06:06:10;36.13;;;14.40;;
5507;SDS011;2776;51.046;6.772;2023-12-14T06:08:38;32.43;;;13.53;;
5507;SDS011;2776;51.046;6.772;2023-12-14T06:11:05;34.33;;;12.97;;
5507;SDS011;2776;51.046;6.772;2023-12-14T06:13:32;30.77;;;12.77;;
5507;SDS011;2776;51.046;6.772;2023-12-14T06:15:58;33.43;;;13.47;;
5507;SDS011;2776;51.046;6.772;2023-12-14T06:18:25;31.33;;;13.40;;
5507;SDS011;2776;51.046;6.772;2023-12-14T06:20:52;29.33;;;12.43;;
5507;SDS011;2776;51.046;6.772;2023-12-14T06:23:20;30.60;;;12.90;;
5507;SDS011;2776;51.046;6.772;2023-12-14T06:25:47;29.63;;;12.83;;
5507;SDS011;2776;51.046;6.772;2023-12-14T06:28:13;26.33;;;11.77;;
5507;SDS011;2776;51.046;6.772;2023-12-14T06:30:40;25.13;;;11.83;;
5507;SDS011;2776;51.046;6.772;2023-12-14T06:33:07;26.50;;;10.80;;
5507;SDS011;2776;51.046;6.772;2023-12-14T06:35:34;28.47;;;13.10;;
5507;SDS011;2776;51.046;6.772;2023-12-14T06:38:00;25.23;;;11.50;;
5507;SDS011;2776;51.046;6.772;2023-12-14T06:40:28;29.83;;;12.03;;
5507;SDS011;2776;51.046;6.772;2023-12-14T06:42:55;33.17;;;11.03;;
5507;SDS011;2776;51.046;6.772;2023-12-14T06:45:22;27.50;;;11.97;;
5507;SDS011;2776;51.046;6.772;2023-12-14T06:47:48;31.43;;;13.20;;
5507;SDS011;2776;51.046;6.772;2023-12-14T06:50:15;32.47;;;12.27;;
5507;SDS011;2776;51.046;6.772;2023-12-14T06:52:42;33.70;;;14.00;;
5507;SDS011;2776;51.046;6.772;2023-12-14T06:55:09;24.67;;;11.17;;
5507;SDS011;2776;51.046;6.772;2023-12-14T06:57:38;34.47;;;13.10;;
5507;SDS011;2776;51.046;6.772;2023-12-14T07:00:05;31.23;;;11.73;;
5507;SDS011;2776;51.046;6.772;2023-12-14T07:02:33;29.43;;;11.77;;
5507;SDS011;2776;51.046;6.772;2023-12-14T07:05:00;22.20;;;10.67;;
5507;SDS011;2776;51.046;6.772;2023-12-14T07:07:26;25.67;;;11.63;;
5507;SDS011;2776;51.046;6.772;2023-12-14T07:09:53;28.20;;;11.10;;
5507;SDS011;2776;51.046;6.772;2023-12-14T07:12:20;20.43;;;10.80;;
5507;SDS011;2776;51.046;6.772;2023-12-14T07:14:48;24.20;;;9.63;;
5507;SDS011;2776;51.046;6.772;2023-12-14T07:17:15;23.93;;;9.03;;
5507;SDS011;2776;51.046;6.772;2023-12-14T07:19:42;22.30;;;8.63;;
5507;SDS011;2776;51.046;6.772;2023-12-14T07:22:08;25.63;;;9.20;;
5507;SDS011;2776;51.046;6.772;2023-12-14T07:24:35;21.10;;;8.97;;
5507;SDS011;2776;51.046;6.772;2023-12-14T07:27:02;22.03;;;9.47;;
5507;SDS011;2776;51.046;6.772;2023-12-14T07:29:29;20.47;;;8.97;;
5507;SDS011;2776;51.046;6.772;2023-12-14T07:31:57;22.10;;;10.07;;
5507;SDS011;2776;51.046;6.772;2023-12-14T07:34:24;22.67;;;10.53;;
5507;SDS011;2776;51.046;6.772;2023-12-14T07:36:53;18.93;;;9.13;;
5507;SDS011;2776;51.046;6.772;2023-12-14T07:39:19;19.80;;;8.67;;
5507;SDS011;2776;51.046;6.772;2023-12-14T07:41:46;21.87;;;9.50;;
5507;SDS011;2776;51.046;6.772;2023-12-14T07:44:13;14.93;;;6.73;;
5507;SDS011;2776;51.046;6.772;2023-12-14T07:46:40;19.80;;;9.47;;
5507;SDS011;2776;51.046;6.772;2023-12-14T07:49:09;18.20;;;8.60;;
5507;SDS011;2776;51.046;6.772;2023-12-14T07:51:36;20.10;;;9.17;;
5507;SDS011;2776;51.046;6.772;2023-12-14T07:54:03;17.77;;;8.97;;
5507;SDS011;2776;51.046;6.772;2023-12-14T07:56:30;22.67;;;9.77;;
5507;SDS011;2776;51.046;6.772;2023-12-14T07:58:58;16.93;;;7.93;;
5507;SDS011;2776;51.046;6.772;2023-12-14T08:01:25;20.63;;;8.13;;
5507;SDS011;2776;51.046;6.772;2023-12-14T08:03:51;22.23;;;10.30;;
5507;SDS011;2776;51.046;6.772;2023-12-14T08:06:19;21.37;;;10.27;;
5507;SDS011;2776;51.046;6.772;2023-12-14T08:08:46;16.33;;;8.17;;
5507;SDS011;2776;51.046;6.772;2023-12-14T08:11:13;17.30;;;7.77;;
5507;SDS011;2776;51.046;6.772;2023-12-14T08:13:39;14.03;;;7.47;;
5507;SDS011;2776;51.046;6.772;2023-12-14T08:16:07;18.40;;;8.10;;
5507;SDS011;2776;51.046;6.772;2023-12-14T08:18:36;18.87;;;8.17;;
5507;SDS011;2776;51.046;6.772;2023-12-14T08:21:03;17.80;;;8.87;;
5507;SDS011;2776;51.046;6.772;2023-12-14T08:23:31;19.13;;;9.03;;
5507;SDS011;2776;51.046;6.772;2023-12-14T08:25:58;18.63;;;9.57;;
5507;SDS011;2776;51.046;6.772;2023-12-14T08:28:25;21.53;;;9.23;;
5507;SDS011;2776;51.046;6.772;2023-12-14T08:30:51;22.13;;;9.47;;
5507;SDS011;2776;51.046;6.772;2023-12-14T08:33:18;17.97;;;7.40;;
5507;SDS011;2776;51.046;6.772;2023-12-14T08:35:45;21.77;;;9.43;;
5507;SDS011;2776;51.046;6.772;2023-12-14T08:38:11;20.73;;;9.23;;
5507;SDS011;2776;51.046;6.772;2023-12-14T08:40:40;20.00;;;9.63;;
5507;SDS011;2776;51.046;6.772;2023-12-14T08:43:06;24.87;;;11.00;;
5507;SDS011;2776;51.046;6.772;2023-12-14T08:45:33;21.80;;;9.77;;
5507;SDS011;2776;51.046;6.772;2023-12-14T08:48:00;24.03;;;10.93;;
5507;SDS011;2776;51.046;6.772;2023-12-14T08:50:27;20.57;;;10.47;;
5507;SDS011;2776;51.046;6.772;2023-12-14T08:52:53;29.37;;;11.23;;
5507;SDS011;2776;51.046;6.772;2023-12-14T08:55:20;20.50;;;10.30;;
5507;SDS011;2776;51.046;6.772;2023-12-14T08:57:48;23.00;;;10.67;;
5507;SDS011;2776;51.046;6.772;2023-12-14T09:00:15;24.23;;;11.83;;
5507;SDS011;2776;51.046;6.772;2023-12-14T09:02:43;23.87;;;10.37;;
5507;SDS011;2776;51.046;6.772;2023-12-14T09:05:11;25.07;;;10.27;;
5507;SDS011;2776;51.046;6.772;2023-12-14T09:07:39;24.03;;;10.47;;
5507;SDS011;2776;51.046;6.772;2023-12-14T09:10:06;23.20;;;11.03;;
5507;SDS011;2776;51.046;6.772;2023-12-14T09:12:34;23.30;;;10.23;;
5507;SDS011;2776;51.046;6.772;2023-12-14T09:15:03;27.33;;;11.87;;
5507;SDS011;2776;51.046;6.772;2023-12-14T09:17:30;25.57;;;11.37;;
5507;SDS011;2776;51.046;6.772;2023-12-14T09:19:58;28.00;;;11.43;;
5507;SDS011;2776;51.046;6.772;2023-12-14T09:22:24;21.40;;;10.00;;
5507;SDS011;2776;51.046;6.772;2023-12-14T09:24:52;26.30;;;12.10;;
5507;SDS011;2776;51.046;6.772;2023-12-14T09:27:18;25.00;;;10.97;;
5507;SDS011;2776;51.046;6.772;2023-12-14T09:29:45;20.00;;;10.00;;
5507;SDS011;2776;51.046;6.772;2023-12-14T09:32:13;27.03;;;10.27;;
5507;SDS011;2776;51.046;6.772;2023-12-14T09:34:42;21.83;;;10.40;;
5507;SDS011;2776;51.046;6.772;2023-12-14T09:37:08;24.47;;;12.40;;
5507;SDS011;2776;51.046;6.772;2023-12-14T09:39:36;24.10;;;10.07;;
5507;SDS011;2776;51.046;6.772;2023-12-14T09:42:03;22.73;;;11.53;;
5507;SDS011;2776;51.046;6.772;2023-12-14T09:44:31;23.37;;;11.43;;
5507;SDS011;2776;51.046;6.772;2023-12-14T09:46:58;25.90;;;10.80;;
5507;SDS011;2776;51.046;6.772;2023-12-14T09:49:27;22.80;;;9.93;;
5507;SDS011;2776;51.046;6.772;2023-12-14T09:51:55;24.47;;;10.20;;
5507;SDS011;2776;51.046;6.772;2023-12-14T09:54:22;22.27;;;10.33;;
5507;SDS011;2776;51.046;6.772;2023-12-14T09:56:49;21.23;;;10.57;;
5507;SDS011;2776;51.046;6.772;2023-12-14T09:59:17;23.93;;;10.53;;
5507;SDS011;2776;51.046;6.772;2023-12-14T10:01:44;24.80;;;12.23;;
5507;SDS011;2776;51.046;6.772;2023-12-14T10:04:12;27.73;;;10.57;;
5507;SDS011;2776;51.046;6.772;2023-12-14T10:06:41;27.07;;;11.23;;
5507;SDS011;2776;51.046;6.772;2023-12-14T10:09:08;24.07;;;10.47;;
5507;SDS011;2776;51.046;6.772;2023-12-14T10:11:38;17.77;;;9.87;;
5507;SDS011;2776;51.046;6.772;2023-12-14T10:14:15;21.43;;;10.23;;
5507;SDS011;2776;51.046;6.772;2023-12-14T10:16:45;16.90;;;8.50;;
5507;SDS011;2776;51.046;6.772;2023-12-14T10:19:13;20.47;;;10.73;;
5507;SDS011;2776;51.046;6.772;2023-12-14T10:21:41;19.13;;;10.10;;
5507;SDS011;2776;51.046;6.772;2023-12-14T10:24:07;18.00;;;9.37;;
5507;SDS011;2776;51.046;6.772;2023-12-14T10:26:34;20.67;;;9.90;;
5507;SDS011;2776;51.046;6.772;2023-12-14T10:29:01;19.90;;;9.67;;
5507;SDS011;2776;51.046;6.772;2023-12-14T10:31:29;17.57;;;8.63;;
5507;SDS011;2776;51.046;6.772;2023-12-14T10:33:56;15.13;;;8.70;;
5507;SDS011;2776;51.046;6.772;2023-12-14T10:36:24;20.93;;;10.00;;
5507;SDS011;2776;51.046;6.772;2023-12-14T10:38:53;15.30;;;8.07;;
5507;SDS011;2776;51.046;6.772;2023-12-14T10:41:23;18.13;;;8.90;;
5507;SDS011;2776;51.046;6.772;2023-12-14T10:43:52;15.40;;;8.93;;
5507;SDS011;2776;51.046;6.772;2023-12-14T10:46:20;20.13;;;9.83;;
5507;SDS011;2776;51.046;6.772;2023-12-14T10:48:48;16.80;;;9.60;;
5507;SDS011;2776;51.046;6.772;2023-12-14T10:51:16;17.07;;;8.60;;
5507;SDS011;2776;51.046;6.772;2023-12-14T10:53:44;15.63;;;8.73;;
5507;SDS011;2776;51.046;6.772;2023-12-14T10:56:15;14.33;;;7.87;;
5507;SDS011;2776;51.046;6.772;2023-12-14T10:58:46;16.23;;;8.57;;
5507;SDS011;2776;51.046;6.772;2023-12-14T11:01:14;14.73;;;7.87;;
5507;SDS011;2776;51.046;6.772;2023-12-14T11:03:42;16.73;;;9.53;;
5507;SDS011;2776;51.046;6.772;2023-12-14T11:06:28;17.63;;;8.50;;
5507;SDS011;2776;51.046;6.772;2023-12-14T11:08:57;17.73;;;9.00;;
5507;SDS011;2776;51.046;6.772;2023-12-14T11:11:29;18.70;;;9.20;;
5507;SDS011;2776;51.046;6.772;2023-12-14T11:13:56;13.83;;;7.63;;
5507;SDS011;2776;51.046;6.772;2023-12-14T11:16:23;17.07;;;8.47;;
5507;SDS011;2776;51.046;6.772;2023-12-14T11:22:09;17.47;;;8.53;;
5507;SDS011;2776;51.046;6.772;2023-12-14T11:24:51;14.93;;;7.70;;
5507;SDS011;2776;51.046;6.772;2023-12-14T11:27:22;13.93;;;8.13;;
5507;SDS011;2776;51.046;6.772;2023-12-14T11:29:53;15.13;;;7.93;;
5507;SDS011;2776;51.046;6.772;2023-12-14T11:32:19;19.73;;;8.83;;
5507;SDS011;2776;51.046;6.772;2023-12-14T11:34:45;19.20;;;9.37;;
5507;SDS011;2776;51.046;6.772;2023-12-14T11:37:13;14.20;;;8.27;;
5507;SDS011;2776;51.046;6.772;2023-12-14T11:39:40;19.60;;;8.20;;
5507;SDS011;2776;51.046;6.772;2023-12-14T11:42:08;15.43;;;8.87;;
5507;SDS011;2776;51.046;6.772;2023-12-14T11:44:37;17.97;;;8.70;;
5507;SDS011;2776;51.046;6.772;2023-12-14T11:47:04;13.80;;;7.90;;
5507;SDS011;2776;51.046;6.772;2023-12-14T11:49:30;14.90;;;9.30;;
5507;SDS011;2776;51.046;6.772;2023-12-14T11:51:58;17.63;;;7.37;;
5507;SDS011;2776;51.046;6.772;2023-12-14T11:54:29;12.50;;;7.27;;
5507;SDS011;2776;51.046;6.772;2023-12-14T11:56:56;13.97;;;7.47;;
5507;SDS011;2776;51.046;6.772;2023-12-14T11:59:23;12.63;;;6.90;;
5507;SDS011;2776;51.046;6.772;2023-12-14T12:01:57;14.60;;;6.60;;
5507;SDS011;2776;51.046;6.772;2023-12-14T12:04:25;13.77;;;7.60;;
5507;SDS011;2776;51.046;6.772;2023-12-14T12:06:59;16.20;;;7.13;;
5507;SDS011;2776;51.046;6.772;2023-12-14T12:09:36;12.70;;;7.00;;
5507;SDS011;2776;51.046;6.772;2023-12-14T12:12:06;10.83;;;6.50;;
5507;SDS011;2776;51.046;6.772;2023-12-14T12:14:34;18.23;;;8.60;;
5507;SDS011;2776;51.046;6.772;2023-12-14T12:17:03;11.67;;;6.87;;
5507;SDS011;2776;51.046;6.772;2023-12-14T12:19:31;18.60;;;7.30;;
5507;SDS011;2776;51.046;6.772;2023-12-14T12:21:58;13.37;;;6.70;;
5507;SDS011;2776;51.046;6.772;2023-12-14T12:24:25;11.20;;;6.33;;
5507;SDS011;2776;51.046;6.772;2023-12-14T12:26:52;11.90;;;7.03;;
5507;SDS011;2776;51.046;6.772;2023-12-14T12:29:18;15.23;;;7.20;;
5507;SDS011;2776;51.046;6.772;2023-12-14T12:31:45;11.77;;;6.73;;
5507;SDS011;2776;51.046;6.772;2023-12-14T12:34:13;10.63;;;6.23;;
5507;SDS011;2776;51.046;6.772;2023-12-14T12:36:40;12.23;;;6.87;;
5507;SDS011;2776;51.046;6.772;2023-12-14T12:39:07;13.40;;;7.03;;
5507;SDS011;2776;51.046;6.772;2023-12-14T12:41:34;13.17;;;6.57;;
5507;SDS011;2776;51.046;6.772;2023-12-14T12:44:02;12.93;;;6.80;;
5507;SDS011;2776;51.046;6.772;2023-12-14T12:46:31;14.47;;;6.70;;
5507;SDS011;2776;51.046;6.772;2023-12-14T12:48:58;11.00;;;6.03;;
5507;SDS011;2776;51.046;6.772;2023-12-14T12:51:26;12.03;;;6.27;;
5507;SDS011;2776;51.046;6.772;2023-12-14T12:53:54;10.70;;;6.43;;
5507;SDS011;2776;51.046;6.772;2023-12-14T12:56:22;12.03;;;6.10;;
5507;SDS011;2776;51.046;6.772;2023-12-14T12:58:49;10.50;;;6.20;;
5507;SDS011;2776;51.046;6.772;2023-12-14T13:01:18;11.00;;;6.50;;
5507;SDS011;2776;51.046;6.772;2023-12-14T13:03:46;11.70;;;6.90;;
5507;SDS011;2776;51.046;6.772;2023-12-14T13:06:12;12.23;;;5.87;;
5507;SDS011;2776;51.046;6.772;2023-12-14T13:08:40;11.27;;;6.10;;
5507;SDS011;2776;51.046;6.772;2023-12-14T13:11:07;8.83;;;5.53;;
5507;SDS011;2776;51.046;6.772;2023-12-14T13:13:34;8.70;;;5.70;;
5507;SDS011;2776;51.046;6.772;2023-12-14T13:16:01;10.97;;;5.77;;
5507;SDS011;2776;51.046;6.772;2023-12-14T13:18:28;9.57;;;5.70;;
5507;SDS011;2776;51.046;6.772;2023-12-14T13:20:54;12.13;;;5.83;;
5507;SDS011;2776;51.046;6.772;2023-12-14T13:23:22;12.13;;;6.40;;
5507;SDS011;2776;51.046;6.772;2023-12-14T13:25:50;8.53;;;4.77;;
5507;SDS011;2776;51.046;6.772;2023-12-14T13:28:17;8.17;;;5.10;;
5507;SDS011;2776;51.046;6.772;2023-12-14T13:30:44;6.43;;;4.47;;
5507;SDS011;2776;51.046;6.772;2023-12-14T13:33:11;8.70;;;4.43;;
5507;SDS011;2776;51.046;6.772;2023-12-14T13:35:37;5.97;;;3.90;;
5507;SDS011;2776;51.046;6.772;2023-12-14T13:38:04;8.20;;;4.47;;
5507;SDS011;2776;51.046;6.772;2023-12-14T13:40:31;8.43;;;4.47;;
5507;SDS011;2776;51.046;6.772;2023-12-14T13:42:59;8.17;;;5.03;;
5507;SDS011;2776;51.046;6.772;2023-12-14T13:45:28;7.33;;;4.53;;
5507;SDS011;2776;51.046;6.772;2023-12-14T13:47:56;9.37;;;4.47;;
5507;SDS011;2776;51.046;6.772;2023-12-14T13:50:23;6.70;;;3.90;;
5507;SDS011;2776;51.046;6.772;2023-12-14T13:52:51;6.60;;;3.67;;
5507;SDS011;2776;51.046;6.772;2023-12-14T13:55:18;7.10;;;4.30;;
5507;SDS011;2776;51.046;6.772;2023-12-14T13:57:45;7.33;;;3.60;;
5507;SDS011;2776;51.046;6.772;2023-12-14T14:00:14;7.43;;;4.57;;
5507;SDS011;2776;51.046;6.772;2023-12-14T14:02:43;8.10;;;4.43;;
5507;SDS011;2776;51.046;6.772;2023-12-14T14:05:10;7.83;;;3.73;;
5507;SDS011;2776;51.046;6.772;2023-12-14T14:07:37;7.10;;;3.93;;
5507;SDS011;2776;51.046;6.772;2023-12-14T14:10:04;7.00;;;4.10;;
5507;SDS011;2776;51.046;6.772;2023-12-14T14:12:31;6.07;;;3.90;;
5507;SDS011;2776;51.046;6.772;2023-12-14T14:14:58;7.57;;;3.53;;
5507;SDS011;2776;51.046;6.772;2023-12-14T14:17:26;7.13;;;3.63;;
5507;SDS011;2776;51.046;6.772;2023-12-14T14:19:53;10.97;;;4.30;;
5507;SDS011;2776;51.046;6.772;2023-12-14T14:22:20;8.03;;;4.47;;
5507;SDS011;2776;51.046;6.772;2023-12-14T14:24:47;8.47;;;3.97;;
5507;SDS011;2776;51.046;6.772;2023-12-14T14:27:13;13.70;;;5.30;;
5507;SDS011;2776;51.046;6.772;2023-12-14T14:29:40;7.57;;;4.47;;
5507;SDS011;2776;51.046;6.772;2023-12-14T14:32:07;6.83;;;4.23;;
5507;SDS011;2776;51.046;6.772;2023-12-14T14:34:35;7.63;;;4.63;;
5507;SDS011;2776;51.046;6.772;2023-12-14T14:37:01;9.00;;;5.03;;
5507;SDS011;2776;51.046;6.772;2023-12-14T14:39:28;8.40;;;4.57;;
5507;SDS011;2776;51.046;6.772;2023-12-14T14:41:55;8.90;;;4.83;;
5507;SDS011;2776;51.046;6.772;2023-12-14T14:44:21;6.83;;;4.20;;
5507;SDS011;2776;51.046;6.772;2023-12-14T14:46:48;9.80;;;4.80;;
5507;SDS011;2776;51.046;6.772;2023-12-14T14:49:15;8.30;;;4.33;;
5507;SDS011;2776;51.046;6.772;2023-12-14T14:51:43;7.73;;;4.70;;
5507;SDS011;2776;51.046;6.772;2023-12-14T14:54:10;9.93;;;5.13;;
5507;SDS011;2776;51.046;6.772;2023-12-14T14:56:37;8.73;;;3.87;;
5507;SDS011;2776;51.046;6.772;2023-12-14T14:59:04;11.27;;;5.23;;